sensor_id;sensor_type;location;lat;lon;timestamp;pressure;altitude;pressure_sealevel;temperature;humidity
7337;BME280;54510;42.016;23.098;2022-08-25T00:00:10;-21852.28;;;26.30;66.10
7337;BME280;54510;42.016;23.098;2022-08-25T00:02:36;-21863.13;;;26.71;64.94
7337;BME280;54510;42.016;23.098;2022-08-25T00:05:03;-21870.34;;;26.98;63.60
7337;BME280;54510;42.016;23.098;2022-08-25T00:07:29;-21870.47;;;26.98;63.78
7337;BME280;54510;42.016;23.098;2022-08-25T00:09:55;-21879.28;;;27.31;63.17
7337;BME280;54510;42.016;23.098;2022-08-25T00:12:20;-21883.91;;;27.48;62.11
7337;BME280;54510;42.016;23.098;2022-08-25T00:14:46;-21881.47;;;27.39;62.59
7337;BME280;54510;42.016;23.098;2022-08-25T00:17:11;-21882.41;;;27.43;61.69
7337;BME280;54510;42.016;23.098;2022-08-25T00:19:37;-21886.22;;;27.57;61.81
7337;BME280;54510;42.016;23.098;2022-08-25T00:22:03;-21871.16;;;27.01;63.33
7337;BME280;54510;42.016;23.098;2022-08-25T00:24:29;-21865.03;;;26.78;64.26
7337;BME280;54510;42.016;23.098;2022-08-25T00:26:56;-21870.75;;;26.99;63.38
7337;BME280;54510;42.016;23.098;2022-08-25T00:29:24;-21866.94;;;26.85;63.90
7337;BME280;54510;42.016;23.098;2022-08-25T00:31:54;-21868.84;;;26.92;64.37
7337;BME280;54510;42.016;23.098;2022-08-25T00:34:24;-21874.28;;;27.12;63.29
7337;BME280;54510;42.016;23.098;2022-08-25T00:36:52;-21873.59;;;27.10;62.97
7337;BME280;54510;42.016;23.098;2022-08-25T00:39:19;-21866.00;;;26.82;64.07
7337;BME280;54510;42.016;23.098;2022-08-25T00:41:46;-21866.25;;;26.83;64.00
7337;BME280;54510;42.016;23.098;2022-08-25T00:44:13;-21876.44;;;27.21;63.34
7337;BME280;54510;42.016;23.098;2022-08-25T00:46:47;-21873.59;;;27.10;62.94
7337;BME280;54510;42.016;23.098;2022-08-25T00:49:23;-21883.34;;;27.46;62.49
7337;BME280;54510;42.016;23.098;2022-08-25T00:52:07;-21866.25;;;26.83;63.87
7337;BME280;54510;42.016;23.098;2022-08-25T00:54:40;-21879.56;;;27.32;62.66
7337;BME280;54510;42.016;23.098;2022-08-25T00:57:08;-21868.97;;;26.93;64.38
7337;BME280;54510;42.016;23.098;2022-08-25T00:59:35;-21874.81;;;27.15;62.97
7337;BME280;54510;42.016;23.098;2022-08-25T01:02:02;-21877.94;;;27.26;62.67
7337;BME280;54510;42.016;23.098;2022-08-25T01:04:29;-21873.59;;;27.10;63.36
7337;BME280;54510;42.016;23.098;2022-08-25T01:06:55;-21870.88;;;27.00;63.63
7337;BME280;54510;42.016;23.098;2022-08-25T01:09:21;-21866.81;;;26.85;64.05
7337;BME280;54510;42.016;23.098;2022-08-25T01:11:47;-21872.38;;;27.05;63.30
7337;BME280;54510;42.016;23.098;2022-08-25T01:14:16;-21873.47;;;27.09;62.90
7337;BME280;54510;42.016;23.098;2022-08-25T01:16:43;-21869.66;;;26.95;63.58
7337;BME280;54510;42.016;23.098;2022-08-25T01:19:11;-21869.78;;;26.96;63.76
7337;BME280;54510;42.016;23.098;2022-08-25T01:21:43;-21865.03;;;26.78;64.55
7337;BME280;54510;42.016;23.098;2022-08-25T01:24:13;-21870.75;;;26.99;63.57
7337;BME280;54510;42.016;23.098;2022-08-25T01:26:41;-21877.13;;;27.23;63.24
7337;BME280;54510;42.016;23.098;2022-08-25T01:29:08;-21876.72;;;27.22;63.56
7337;BME280;54510;42.016;23.098;2022-08-25T01:31:51;-21881.06;;;27.38;64.14
7337;BME280;54510;42.016;23.098;2022-08-25T01:34:19;-21880.66;;;27.36;64.17
7337;BME280;54510;42.016;23.098;2022-08-25T01:36:45;-21866.00;;;26.82;65.66
7337;BME280;54510;42.016;23.098;2022-08-25T01:39:12;-21870.59;;;26.99;65.53
7337;BME280;54510;42.016;23.098;2022-08-25T01:44:31;-21869.13;;;26.93;65.31
7337;BME280;54510;42.016;23.098;2022-08-25T01:46:56;-21863.28;;;26.71;66.63
7337;BME280;54510;42.016;23.098;2022-08-25T01:49:22;-21865.84;;;26.81;65.86
7337;BME280;54510;42.016;23.098;2022-08-25T01:51:52;-21868.97;;;26.93;65.46
7337;BME280;54510;42.016;23.098;2022-08-25T01:54:19;-21875.34;;;27.17;65.01
7337;BME280;54510;42.016;23.098;2022-08-25T01:56:45;-21863.53;;;26.72;65.03
7337;BME280;54510;42.016;23.098;2022-08-25T01:59:14;-21864.50;;;26.76;65.77
7337;BME280;54510;42.016;23.098;2022-08-25T02:01:40;-21861.38;;;26.64;65.94
7337;BME280;54510;42.016;23.098;2022-08-25T02:04:06;-21869.53;;;26.95;65.06
7337;BME280;54510;42.016;23.098;2022-08-25T02:06:32;-21866.41;;;26.83;65.91
7337;BME280;54510;42.016;23.098;2022-08-25T02:09:08;-21877.81;;;27.26;64.74
7337;BME280;54510;42.016;23.098;2022-08-25T02:11:36;-21877.00;;;27.23;64.84
7337;BME280;54510;42.016;23.098;2022-08-25T02:14:03;-21883.09;;;27.45;63.68
7337;BME280;54510;42.016;23.098;2022-08-25T02:16:35;-21882.94;;;27.45;63.71
7337;BME280;54510;42.016;23.098;2022-08-25T02:19:02;-21890.00;;;27.71;62.99
7337;BME280;54510;42.016;23.098;2022-08-25T02:21:27;-21882.53;;;27.43;63.48
7337;BME280;54510;42.016;23.098;2022-08-25T02:23:54;-21889.19;;;27.68;62.73
7337;BME280;54510;42.016;23.098;2022-08-25T02:26:21;-21896.66;;;27.96;62.41
7337;BME280;54510;42.016;23.098;2022-08-25T02:28:48;-21893.94;;;27.86;63.20
7337;BME280;54510;42.016;23.098;2022-08-25T02:31:15;-21894.06;;;27.86;62.61
7337;BME280;54510;42.016;23.098;2022-08-25T02:33:41;-21891.63;;;27.77;62.52
7337;BME280;54510;42.016;23.098;2022-08-25T02:36:07;-21894.63;;;27.88;61.63
7337;BME280;54510;42.016;23.098;2022-08-25T02:38:33;-21900.44;;;28.10;61.26
7337;BME280;54510;42.016;23.098;2022-08-25T02:40:59;-21887.44;;;27.62;62.95
7337;BME280;54510;42.016;23.098;2022-08-25T02:43:25;-21891.50;;;27.77;63.01
7337;BME280;54510;42.016;23.098;2022-08-25T02:45:52;-21890.69;;;27.74;63.10
7337;BME280;54510;42.016;23.098;2022-08-25T02:48:19;-21901.94;;;28.16;62.93
7337;BME280;54510;42.016;23.098;2022-08-25T02:50:50;-21905.06;;;28.27;62.47
7337;BME280;54510;42.016;23.098;2022-08-25T02:53:17;-21886.63;;;27.59;63.84
7337;BME280;54510;42.016;23.098;2022-08-25T02:55:43;-21893.00;;;27.82;63.44
7337;BME280;54510;42.016;23.098;2022-08-25T02:58:08;-21894.75;;;27.89;63.70
7337;BME280;54510;42.016;23.098;2022-08-25T03:00:35;-21883.22;;;27.46;64.78
7337;BME280;54510;42.016;23.098;2022-08-25T03:03:01;-21885.94;;;27.56;64.45
7337;BME280;54510;42.016;23.098;2022-08-25T03:05:26;-21893.00;;;27.82;65.22
7337;BME280;54510;42.016;23.098;2022-08-25T03:07:52;-21895.28;;;27.91;63.70
7337;BME280;54510;42.016;23.098;2022-08-25T03:10:17;-21900.03;;;28.09;62.43
7337;BME280;54510;42.016;23.098;2022-08-25T03:12:45;-21901.41;;;28.14;61.72
7337;BME280;54510;42.016;23.098;2022-08-25T03:15:13;-21899.78;;;28.08;61.48
7337;BME280;54510;42.016;23.098;2022-08-25T03:17:41;-21900.19;;;28.09;61.62
7337;BME280;54510;42.016;23.098;2022-08-25T03:20:07;-21900.59;;;28.11;60.87
7337;BME280;54510;42.016;23.098;2022-08-25T03:22:32;-21896.25;;;27.95;61.70
7337;BME280;54510;42.016;23.098;2022-08-25T03:24:58;-21892.59;;;27.81;62.57
7337;BME280;54510;42.016;23.098;2022-08-25T03:27:43;-21884.44;;;27.50;63.69
7337;BME280;54510;42.016;23.098;2022-08-25T03:30:10;-21886.47;;;27.58;64.66
7337;BME280;54510;42.016;23.098;2022-08-25T03:32:36;-21897.88;;;28.01;63.71
7337;BME280;54510;42.016;23.098;2022-08-25T03:35:01;-21903.84;;;28.23;63.11
7337;BME280;54510;42.016;23.098;2022-08-25T03:37:27;-21890.00;;;27.71;64.42
7337;BME280;54510;42.016;23.098;2022-08-25T03:39:52;-21880.38;;;27.35;65.88
7337;BME280;54510;42.016;23.098;2022-08-25T03:42:18;-21872.78;;;27.07;66.39
7337;BME280;54510;42.016;23.098;2022-08-25T03:44:43;-21866.41;;;26.83;66.80
7337;BME280;54510;42.016;23.098;2022-08-25T03:47:09;-21872.91;;;27.07;66.53
7337;BME280;54510;42.016;23.098;2022-08-25T03:49:34;-21861.66;;;26.65;68.50
7337;BME280;54510;42.016;23.098;2022-08-25T03:52:00;-21861.66;;;26.65;68.21
7337;BME280;54510;42.016;23.098;2022-08-25T03:54:26;-21853.63;;;26.35;69.52
7337;BME280;54510;42.016;23.098;2022-08-25T03:56:52;-21864.09;;;26.74;68.59
7337;BME280;54510;42.016;23.098;2022-08-25T03:59:18;-21867.06;;;26.86;68.06
7337;BME280;54510;42.016;23.098;2022-08-25T04:01:44;-21850.91;;;26.25;69.46
7337;BME280;54510;42.016;23.098;2022-08-25T04:04:12;-21851.03;;;26.26;70.32
7337;BME280;54510;42.016;23.098;2022-08-25T04:06:39;-21860.97;;;26.63;68.29
7337;BME280;54510;42.016;23.098;2022-08-25T04:09:05;-21864.22;;;26.75;67.91
7337;BME280;54510;42.016;23.098;2022-08-25T04:11:31;-21863.81;;;26.73;67.86
7337;BME280;54510;42.016;23.098;2022-08-25T04:13:57;-21865.59;;;26.80;67.96
7337;BME280;54510;42.016;23.098;2022-08-25T04:16:26;-21860.28;;;26.60;68.32
7337;BME280;54510;42.016;23.098;2022-08-25T04:18:54;-21868.56;;;26.91;67.85
7337;BME280;54510;42.016;23.098;2022-08-25T04:21:21;-21879.44;;;27.32;67.21
7337;BME280;54510;42.016;23.098;2022-08-25T04:23:48;-21872.38;;;27.05;66.52
7337;BME280;54510;42.016;23.098;2022-08-25T04:26:16;-21871.56;;;27.02;66.54
7337;BME280;54510;42.016;23.098;2022-08-25T04:28:43;-21869.66;;;26.95;66.95
7337;BME280;54510;42.016;23.098;2022-08-25T04:31:10;-21876.44;;;27.21;66.53
7337;BME280;54510;42.016;23.098;2022-08-25T04:33:37;-21882.00;;;27.41;66.66
7337;BME280;54510;42.016;23.098;2022-08-25T04:36:04;-21880.91;;;27.37;66.12
7337;BME280;54510;42.016;23.098;2022-08-25T04:38:31;-21878.63;;;27.29;67.01
7337;BME280;54510;42.016;23.098;2022-08-25T04:41:02;-21886.22;;;27.57;66.90
7337;BME280;54510;42.016;23.098;2022-08-25T04:43:32;-21888.09;;;27.64;65.72
7337;BME280;54510;42.016;23.098;2022-08-25T04:45:58;-21885.00;;;27.52;65.48
7337;BME280;54510;42.016;23.098;2022-08-25T04:48:24;-21884.59;;;27.51;66.37
7337;BME280;54510;42.016;23.098;2022-08-25T04:50:50;-21889.34;;;27.69;65.98
7337;BME280;54510;42.016;23.098;2022-08-25T04:53:16;-21887.56;;;27.62;65.42
7337;BME280;54510;42.016;23.098;2022-08-25T04:55:46;-21888.94;;;27.67;65.40
7337;BME280;54510;42.016;23.098;2022-08-25T04:58:13;-21891.91;;;27.78;64.33
7337;BME280;54510;42.016;23.098;2022-08-25T05:00:40;-21887.03;;;27.60;64.38
7337;BME280;54510;42.016;23.098;2022-08-25T05:03:06;-21893.53;;;27.84;63.55
7337;BME280;54510;42.016;23.098;2022-08-25T05:05:35;-21896.94;;;27.97;63.55
7337;BME280;54510;42.016;23.098;2022-08-25T05:08:01;-21890.28;;;27.72;63.61
7337;BME280;54510;42.016;23.098;2022-08-25T05:10:26;-21897.88;;;28.01;63.49
7337;BME280;54510;42.016;23.098;2022-08-25T05:12:52;-21902.50;;;28.18;63.83
7337;BME280;54510;42.016;23.098;2022-08-25T05:15:17;-21903.69;;;28.22;63.14
7337;BME280;54510;42.016;23.098;2022-08-25T05:18:02;-21897.88;;;28.01;64.21
7337;BME280;54510;42.016;23.098;2022-08-25T05:20:27;-21899.63;;;28.07;63.28
7337;BME280;54510;42.016;23.098;2022-08-25T05:22:55;-21903.03;;;28.20;62.76
7337;BME280;54510;42.016;23.098;2022-08-25T05:25:21;-21900.59;;;28.11;63.16
7337;BME280;54510;42.016;23.098;2022-08-25T05:27:47;-21908.97;;;28.42;62.14
7337;BME280;54510;42.016;23.098;2022-08-25T05:30:12;-21905.19;;;28.28;62.21
7337;BME280;54510;42.016;23.098;2022-08-25T05:32:38;-21909.94;;;28.46;62.13
7337;BME280;54510;42.016;23.098;2022-08-25T05:35:05;-21901.94;;;28.16;63.04
7337;BME280;54510;42.016;23.098;2022-08-25T05:37:31;-21897.19;;;27.98;65.03
7337;BME280;54510;42.016;23.098;2022-08-25T05:39:56;-21896.53;;;27.96;64.78
7337;BME280;54510;42.016;23.098;2022-08-25T05:42:23;-21899.22;;;28.06;63.67
7337;BME280;54510;42.016;23.098;2022-08-25T05:44:48;-21896.38;;;27.95;64.17
7337;BME280;54510;42.016;23.098;2022-08-25T05:47:14;-21897.19;;;27.98;63.98
7337;BME280;54510;42.016;23.098;2022-08-25T05:49:39;-21899.78;;;28.08;63.42
7337;BME280;54510;42.016;23.098;2022-08-25T05:52:05;-21902.22;;;28.17;62.72
7337;BME280;54510;42.016;23.098;2022-08-25T05:54:30;-21903.97;;;28.23;62.54
7337;BME280;54510;42.016;23.098;2022-08-25T05:56:56;-21901.13;;;28.13;62.86
7337;BME280;54510;42.016;23.098;2022-08-25T05:59:22;-21903.03;;;28.20;62.41
7337;BME280;54510;42.016;23.098;2022-08-25T06:01:47;-21905.75;;;28.30;62.58
7337;BME280;54510;42.016;23.098;2022-08-25T06:04:32;-21908.44;;;28.40;62.81
7337;BME280;54510;42.016;23.098;2022-08-25T06:06:57;-21905.59;;;28.29;62.14
7337;BME280;54510;42.016;23.098;2022-08-25T06:09:23;-21911.97;;;28.53;62.29
7337;BME280;54510;42.016;23.098;2022-08-25T06:11:49;-21893.13;;;27.83;63.12
7337;BME280;54510;42.016;23.098;2022-08-25T06:14:15;-21897.75;;;28.00;63.63
7337;BME280;54510;42.016;23.098;2022-08-25T06:16:40;-21916.03;;;28.68;62.22
7337;BME280;54510;42.016;23.098;2022-08-25T06:19:07;-21913.06;;;28.57;62.66
7337;BME280;54510;42.016;23.098;2022-08-25T06:21:33;-21909.94;;;28.46;63.33
7337;BME280;54510;42.016;23.098;2022-08-25T06:23:59;-21913.59;;;28.59;62.64
7337;BME280;54510;42.016;23.098;2022-08-25T06:26:25;-21929.28;;;29.18;60.26
7337;BME280;54510;42.016;23.098;2022-08-25T06:28:51;-21936.47;;;29.45;58.91
7337;BME280;54510;42.016;23.098;2022-08-25T06:31:18;-21934.72;;;29.38;59.21
7337;BME280;54510;42.016;23.098;2022-08-25T06:33:44;-21944.56;;;29.75;57.75
7337;BME280;54510;42.016;23.098;2022-08-25T06:36:10;-21949.72;;;29.95;57.33
7337;BME280;54510;42.016;23.098;2022-08-25T06:38:35;-21951.47;;;30.01;56.21
7337;BME280;54510;42.016;23.098;2022-08-25T06:41:03;-21951.06;;;30.00;56.91
7337;BME280;54510;42.016;23.098;2022-08-25T06:43:30;-21951.88;;;30.03;56.69
7337;BME280;54510;42.016;23.098;2022-08-25T06:45:57;-21962.41;;;30.42;55.94
7337;BME280;54510;42.016;23.098;2022-08-25T06:48:23;-21964.03;;;30.48;55.61
7337;BME280;54510;42.016;23.098;2022-08-25T06:50:48;-21969.84;;;30.70;54.76
7337;BME280;54510;42.016;23.098;2022-08-25T06:53:14;-21965.53;;;30.54;54.83
7337;BME280;54510;42.016;23.098;2022-08-25T06:55:40;-21965.78;;;30.55;54.56
7337;BME280;54510;42.016;23.098;2022-08-25T06:58:05;-21974.28;;;30.87;54.44
7337;BME280;54510;42.016;23.098;2022-08-25T07:00:31;-21981.56;;;31.14;54.33
7337;BME280;54510;42.016;23.098;2022-08-25T07:02:57;-21974.81;;;30.89;55.08
7337;BME280;54510;42.016;23.098;2022-08-25T07:05:25;-21969.84;;;30.70;55.02
7337;BME280;54510;42.016;23.098;2022-08-25T07:07:51;-21968.47;;;30.65;55.26
7337;BME280;54510;42.016;23.098;2022-08-25T07:10:16;-21969.56;;;30.69;55.12
7337;BME280;54510;42.016;23.098;2022-08-25T07:12:42;-21967.28;;;30.60;55.01
7337;BME280;54510;42.016;23.098;2022-08-25T07:15:07;-21967.28;;;30.60;55.93
7337;BME280;54510;42.016;23.098;2022-08-25T07:17:33;-21969.16;;;30.68;55.12
7337;BME280;54510;42.016;23.098;2022-08-25T07:19:58;-21973.88;;;30.85;54.69
7337;BME280;54510;42.016;23.098;2022-08-25T07:22:24;-21980.63;;;31.11;54.13
7337;BME280;54510;42.016;23.098;2022-08-25T07:24:49;-21983.19;;;31.20;52.67
7337;BME280;54510;42.016;23.098;2022-08-25T07:27:15;-21987.91;;;31.38;51.94
7337;BME280;54510;42.016;23.098;2022-08-25T07:29:40;-21992.34;;;31.55;52.18
7337;BME280;54510;42.016;23.098;2022-08-25T07:32:06;-21988.44;;;31.40;52.12
7337;BME280;54510;42.016;23.098;2022-08-25T07:34:31;-21983.59;;;31.22;52.87
7337;BME280;54510;42.016;23.098;2022-08-25T07:37:16;-21985.22;;;31.28;52.01
7337;BME280;54510;42.016;23.098;2022-08-25T07:39:42;-21990.75;;;31.49;51.53
7337;BME280;54510;42.016;23.098;2022-08-25T07:42:07;-21994.38;;;31.62;51.32
7337;BME280;54510;42.016;23.098;2022-08-25T07:44:33;-21998.97;;;31.80;50.95
7337;BME280;54510;42.016;23.098;2022-08-25T07:46:59;-21998.97;;;31.80;51.61
7337;BME280;54510;42.016;23.098;2022-08-25T07:49:25;-22004.34;;;32.00;51.00
7337;BME280;54510;42.016;23.098;2022-08-25T07:51:53;-22010.53;;;32.23;50.55
7337;BME280;54510;42.016;23.098;2022-08-25T07:54:19;-22009.75;;;32.20;50.67
7337;BME280;54510;42.016;23.098;2022-08-25T07:56:44;-22006.91;;;32.09;50.31
7337;BME280;54510;42.016;23.098;2022-08-25T07:59:10;-21999.09;;;31.80;50.14
7337;BME280;54510;42.016;23.098;2022-08-25T08:01:36;-22005.56;;;32.04;49.90
7337;BME280;54510;42.016;23.098;2022-08-25T08:04:02;-22011.63;;;32.27;49.30
7337;BME280;54510;42.016;23.098;2022-08-25T08:06:28;-22010.28;;;32.22;49.72
7337;BME280;54510;42.016;23.098;2022-08-25T08:08:54;-22005.97;;;32.06;50.28
7337;BME280;54510;42.016;23.098;2022-08-25T08:11:25;-22003.13;;;31.95;51.22
7337;BME280;54510;42.016;23.098;2022-08-25T08:13:53;-22006.50;;;32.08;50.42
7337;BME280;54510;42.016;23.098;2022-08-25T08:16:21;-22007.84;;;32.13;50.10
7337;BME280;54510;42.016;23.098;2022-08-25T08:18:47;-22006.91;;;32.09;50.31
7337;BME280;54510;42.016;23.098;2022-08-25T08:21:15;-22008.13;;;32.14;50.24
7337;BME280;54510;42.016;23.098;2022-08-25T08:23:41;-22010.00;;;32.21;50.51
7337;BME280;54510;42.016;23.098;2022-08-25T08:26:06;-22006.91;;;32.09;51.33
7337;BME280;54510;42.016;23.098;2022-08-25T08:28:32;-22013.50;;;32.34;51.48
7337;BME280;54510;42.016;23.098;2022-08-25T08:30:57;-22011.09;;;32.25;50.76
7337;BME280;54510;42.016;23.098;2022-08-25T08:33:23;-22007.72;;;32.12;50.59
7337;BME280;54510;42.016;23.098;2022-08-25T08:36:01;-22011.34;;;32.26;51.12
7337;BME280;54510;42.016;23.098;2022-08-25T08:38:26;-22019.16;;;32.55;49.95
7337;BME280;54510;42.016;23.098;2022-08-25T08:41:13;-22012.69;;;32.31;50.80
7337;BME280;54510;42.016;23.098;2022-08-25T08:44:19;-22010.28;;;32.22;51.45
7337;BME280;54510;42.016;23.098;2022-08-25T08:57:50;-22017.41;;;32.49;49.91
7337;BME280;54510;42.016;23.098;2022-08-25T09:00:19;-22001.94;;;31.91;51.69
7337;BME280;54510;42.016;23.098;2022-08-25T09:05:17;-22018.63;;;32.53;50.01
7337;BME280;54510;42.016;23.098;2022-08-25T09:07:48;-22011.75;;;32.28;51.54
7337;BME280;54510;42.016;23.098;2022-08-25T09:10:18;-22019.16;;;32.55;51.16
7337;BME280;54510;42.016;23.098;2022-08-25T09:15:32;-22014.03;;;32.36;51.00
7337;BME280;54510;42.016;23.098;2022-08-25T09:18:27;-22014.31;;;32.37;50.59
7337;BME280;54510;42.016;23.098;2022-08-25T09:28:50;-22033.41;;;33.09;48.30
7337;BME280;54510;42.016;23.098;2022-08-25T09:31:33;-22014.84;;;32.39;50.67
7337;BME280;54510;42.016;23.098;2022-08-25T09:34:11;-22022.13;;;32.67;49.76
7337;BME280;54510;42.016;23.098;2022-08-25T09:36:37;-22020.38;;;32.60;49.14
7337;BME280;54510;42.016;23.098;2022-08-25T09:39:05;-22033.16;;;33.08;48.82
7337;BME280;54510;42.016;23.098;2022-08-25T09:44:37;-22035.31;;;33.16;47.59
7337;BME280;54510;42.016;23.098;2022-08-25T09:47:04;-22028.31;;;32.90;47.50
7337;BME280;54510;42.016;23.098;2022-08-25T09:49:37;-22045.38;;;33.54;46.86
7337;BME280;54510;42.016;23.098;2022-08-25T09:54:43;-22041.22;;;33.39;46.78
7337;BME280;54510;42.016;23.098;2022-08-25T09:57:30;-22050.34;;;33.73;45.25
7337;BME280;54510;42.016;23.098;2022-08-25T09:59:56;-22056.25;;;33.95;45.09
7337;BME280;54510;42.016;23.098;2022-08-25T10:02:33;-22060.69;;;34.12;44.42
7337;BME280;54510;42.016;23.098;2022-08-25T10:05:17;-22062.69;;;34.20;43.88
7337;BME280;54510;42.016;23.098;2022-08-25T10:07:55;-22062.28;;;34.18;43.50
7337;BME280;54510;42.016;23.098;2022-08-25T10:10:32;-22075.03;;;34.66;42.41
7337;BME280;54510;42.016;23.098;2022-08-25T10:12:59;-22055.84;;;33.94;42.37
7337;BME280;54510;42.016;23.098;2022-08-25T10:15:35;-22061.50;;;34.15;42.26
7337;BME280;54510;42.016;23.098;2022-08-25T10:18:23;-22084.16;;;35.01;41.99
7337;BME280;54510;42.016;23.098;2022-08-25T10:21:14;-22086.28;;;35.09;41.46
7337;BME280;54510;42.016;23.098;2022-08-25T10:29:22;-22073.97;;;34.62;41.22
7337;BME280;54510;42.016;23.098;2022-08-25T10:31:56;-22076.25;;;34.71;40.42
7337;BME280;54510;42.016;23.098;2022-08-25T10:34:49;-22087.09;;;35.12;40.74
7337;BME280;54510;42.016;23.098;2022-08-25T10:37:45;-22082.00;;;34.93;40.51
7337;BME280;54510;42.016;23.098;2022-08-25T10:53:56;-22120.16;;;36.37;36.78
7337;BME280;54510;42.016;23.098;2022-08-25T10:56:33;-22123.78;;;36.51;35.26
7337;BME280;54510;42.016;23.098;2022-08-25T10:59:12;-22110.78;;;36.01;34.82
7337;BME280;54510;42.016;23.098;2022-08-25T11:04:27;-22100.09;;;35.61;34.17
7337;BME280;54510;42.016;23.098;2022-08-25T11:09:43;-22104.09;;;35.76;31.80
7337;BME280;54510;42.016;23.098;2022-08-25T11:12:14;-22101.56;;;35.67;30.95
7337;BME280;54510;42.016;23.098;2022-08-25T11:14:45;-22109.19;;;35.95;31.15
7337;BME280;54510;42.016;23.098;2022-08-25T11:17:19;-22105.03;;;35.80;30.69
7337;BME280;54510;42.016;23.098;2022-08-25T11:19:54;-22095.94;;;35.45;30.86
7337;BME280;54510;42.016;23.098;2022-08-25T11:25:41;-22110.66;;;36.01;31.43
7337;BME280;54510;42.016;23.098;2022-08-25T11:28:17;-22112.00;;;36.06;31.57
7337;BME280;54510;42.016;23.098;2022-08-25T11:30:46;-22095.53;;;35.44;31.91
7337;BME280;54510;42.016;23.098;2022-08-25T11:33:13;-22083.63;;;34.99;32.52
7337;BME280;54510;42.016;23.098;2022-08-25T11:35:53;-22089.09;;;35.19;32.16
7337;BME280;54510;42.016;23.098;2022-08-25T11:51:43;-22104.50;;;35.78;33.29
7337;BME280;54510;42.016;23.098;2022-08-25T11:56:55;-22102.09;;;35.69;32.92
7337;BME280;54510;42.016;23.098;2022-08-25T12:02:43;-22106.66;;;35.86;32.06
7337;BME280;54510;42.016;23.098;2022-08-25T12:18:07;-22113.19;;;36.11;31.80
7337;BME280;54510;42.016;23.098;2022-08-25T12:26:32;-22123.63;;;36.50;32.15
7337;BME280;54510;42.016;23.098;2022-08-25T12:32:14;-22121.22;;;36.41;31.66
7337;BME280;54510;42.016;23.098;2022-08-25T12:35:14;-22125.63;;;36.58;31.93
7337;BME280;54510;42.016;23.098;2022-08-25T12:40:53;-22132.06;;;36.82;31.10
7337;BME280;54510;42.016;23.098;2022-08-25T12:43:30;-22143.53;;;37.26;31.07
7337;BME280;54510;42.016;23.098;2022-08-25T12:57:04;-22145.66;;;37.34;30.91
7337;BME280;54510;42.016;23.098;2022-08-25T12:59:36;-22139.53;;;37.10;31.18
7337;BME280;54510;42.016;23.098;2022-08-25T13:12:58;-22118.16;;;36.29;31.96
7337;BME280;54510;42.016;23.098;2022-08-25T13:15:45;-22128.19;;;36.67;31.81
7337;BME280;54510;42.016;23.098;2022-08-25T13:18:30;-22129.13;;;36.71;31.47
7337;BME280;54510;42.016;23.098;2022-08-25T13:23:43;-22131.38;;;36.79;31.80
7337;BME280;54510;42.016;23.098;2022-08-25T13:26:22;-22120.97;;;36.40;31.85
7337;BME280;54510;42.016;23.098;2022-08-25T13:31:22;-22129.13;;;36.71;31.83
7337;BME280;54510;42.016;23.098;2022-08-25T13:34:06;-22134.59;;;36.92;31.56
7337;BME280;54510;42.016;23.098;2022-08-25T13:36:42;-22130.72;;;36.77;31.61
7337;BME280;54510;42.016;23.098;2022-08-25T13:39:27;-22132.72;;;36.85;31.27
7337;BME280;54510;42.016;23.098;2022-08-25T13:41:56;-22133.78;;;36.89;31.65
7337;BME280;54510;42.016;23.098;2022-08-25T13:44:24;-22153.94;;;37.65;31.60
7337;BME280;54510;42.016;23.098;2022-08-25T13:47:11;-22167.00;;;38.15;30.50
7337;BME280;54510;42.016;23.098;2022-08-25T13:49:38;-22160.34;;;37.89;29.45
7337;BME280;54510;42.016;23.098;2022-08-25T13:52:05;-22149.28;;;37.47;31.67
7337;BME280;54510;42.016;23.098;2022-08-25T13:54:40;-22140.06;;;37.12;31.15
7337;BME280;54510;42.016;23.098;2022-08-25T13:57:16;-22132.31;;;36.83;30.86
7337;BME280;54510;42.016;23.098;2022-08-25T13:59:49;-22134.06;;;36.90;30.54
7337;BME280;54510;42.016;23.098;2022-08-25T14:05:03;-22152.22;;;37.59;30.04
7337;BME280;54510;42.016;23.098;2022-08-25T14:07:29;-22136.31;;;36.98;29.80
7337;BME280;54510;42.016;23.098;2022-08-25T14:10:10;-22137.66;;;37.03;30.49
7337;BME280;54510;42.016;23.098;2022-08-25T14:13:29;-22153.13;;;37.62;29.39
7337;BME280;54510;42.016;23.098;2022-08-25T14:15:53;-22171.94;;;38.33;29.47
7337;BME280;54510;42.016;23.098;2022-08-25T14:18:22;-22173.94;;;38.41;28.84
7337;BME280;54510;42.016;23.098;2022-08-25T14:20:52;-22164.75;;;38.06;29.46
7337;BME280;54510;42.016;23.098;2022-08-25T14:23:25;-22165.94;;;38.11;29.15
7337;BME280;54510;42.016;23.098;2022-08-25T14:25:53;-22164.34;;;38.05;29.41
7337;BME280;54510;42.016;23.098;2022-08-25T14:28:22;-22168.34;;;38.20;29.13
7337;BME280;54510;42.016;23.098;2022-08-25T14:30:53;-22172.34;;;38.35;28.93
7337;BME280;54510;42.016;23.098;2022-08-25T14:33:24;-22165.16;;;38.08;30.06
7337;BME280;54510;42.016;23.098;2022-08-25T14:35:53;-22164.59;;;38.06;29.69
7337;BME280;54510;42.016;23.098;2022-08-25T14:38:19;-22167.28;;;38.16;30.14
7337;BME280;54510;42.016;23.098;2022-08-25T14:40:46;-22172.59;;;38.36;29.72
7337;BME280;54510;42.016;23.098;2022-08-25T14:43:12;-22172.34;;;38.35;29.60
7337;BME280;54510;42.016;23.098;2022-08-25T14:45:40;-22185.38;;;38.85;28.55
7337;BME280;54510;42.016;23.098;2022-08-25T14:48:08;-22184.44;;;38.81;29.66
7337;BME280;54510;42.016;23.098;2022-08-25T14:50:34;-22182.72;;;38.75;29.20
7337;BME280;54510;42.016;23.098;2022-08-25T14:53:01;-22173.13;;;38.38;29.77
7337;BME280;54510;42.016;23.098;2022-08-25T14:55:27;-22162.22;;;37.96;30.34
7337;BME280;54510;42.016;23.098;2022-08-25T14:57:53;-22163.81;;;38.03;29.01
7337;BME280;54510;42.016;23.098;2022-08-25T15:00:19;-22170.34;;;38.27;30.17
7337;BME280;54510;42.016;23.098;2022-08-25T15:02:47;-22167.66;;;38.17;29.57
7337;BME280;54510;42.016;23.098;2022-08-25T15:05:20;-22173.53;;;38.40;29.25
7337;BME280;54510;42.016;23.098;2022-08-25T15:07:48;-22161.00;;;37.92;29.85
7337;BME280;54510;42.016;23.098;2022-08-25T15:10:32;-22162.47;;;37.97;29.40
7337;BME280;54510;42.016;23.098;2022-08-25T15:12:58;-22170.72;;;38.29;29.60
7337;BME280;54510;42.016;23.098;2022-08-25T15:15:23;-22153.13;;;37.62;30.02